CheckWX is a tool to help pilots better visualize weather data.  It is not intended as a substitute for an official pre-flight weather briefing.

06:58:24 UTC

KDHT TAF
Dalhart Municipal Airport
Dalhart, Texas, USA
KDHT 190520Z 1906/2006 02009KT P6SM SCT200 FM190900 34005KT P6SM FEW200 FM192300 13007KT P6SM SCT200 FM200200 13008KT P6SM SKC FM200500 16007KT P6SM SKC

Jun-19@
06:00 UTC

Jun-19 @ 06:00 UTC

Jun-19@
09:00 UTC

Jun-19 @ 09:00 UTC

KDHT 190520Z 1906/2006 02009KT P6SM SCT200
Wind
  • 020° at 9 KTS
Cloud Levels
  • Scattered at 20,000' AGL

Jun-19@
09:00 UTC

Jun-19 @ 09:00 UTC

Jun-19@
23:00 UTC

Jun-19 @ 23:00 UTC

FM190900 34005KT P6SM FEW200

From

From Standard forecast or significant change

Wind
  • 340° at 5 KTS
Cloud Levels
  • Few at 20,000' AGL

Jun-19@
23:00 UTC

Jun-19 @ 23:00 UTC

Jun-20@
02:00 UTC

Jun-20 @ 02:00 UTC

FM192300 13007KT P6SM SCT200

From

From Standard forecast or significant change

Wind
  • 130° at 7 KTS
Cloud Levels
  • Scattered at 20,000' AGL

Jun-20@
02:00 UTC

Jun-20 @ 02:00 UTC

Jun-20@
05:00 UTC

Jun-20 @ 05:00 UTC

FM200200 13008KT P6SM SKC

From

From Standard forecast or significant change

Wind
  • 130° at 8 KTS
Cloud Levels
  • Clear skies

Jun-20@
05:00 UTC

Jun-20 @ 05:00 UTC

Jun-20@
06:00 UTC

Jun-20 @ 06:00 UTC

FM200500 16007KT P6SM SKC

From

From Standard forecast or significant change

Wind
  • 160° at 7 KTS
Cloud Levels
  • Clear skies